createdAt,value
2023-02-28T00:01:25.551Z,9.60
2023-02-28T00:05:02.077Z,7.90
2023-02-28T00:08:26.040Z,7.80
2023-02-28T00:11:50.016Z,6.90
2023-02-28T00:15:14.376Z,7.10
2023-02-28T00:18:38.860Z,9.50
2023-02-28T00:22:02.711Z,8.20
2023-02-28T00:25:28.134Z,7.20
2023-02-28T00:28:54.664Z,7.70
2023-02-28T00:32:20.878Z,7.30
2023-02-28T00:35:47.404Z,7.40
2023-02-28T00:39:11.462Z,9.20
2023-02-28T00:42:36.569Z,9.30
2023-02-28T00:46:02.243Z,9.30
2023-02-28T00:49:28.831Z,7.50
2023-02-28T00:52:52.814Z,7.00
2023-02-28T00:56:17.825Z,7.00
2023-02-28T00:59:41.804Z,6.90
2023-02-28T01:03:05.783Z,7.30
2023-02-28T01:06:29.932Z,7.70
2023-02-28T01:09:53.792Z,6.70
2023-02-28T01:13:18.450Z,8.60
2023-02-28T01:16:42.442Z,7.60
2023-02-28T01:20:07.012Z,8.20
2023-02-28T01:23:30.842Z,8.50
2023-02-28T01:26:54.654Z,7.80
2023-02-28T01:30:19.049Z,8.00
2023-02-28T01:33:44.593Z,9.40
2023-02-28T01:37:08.512Z,7.70
2023-02-28T01:40:32.530Z,9.10
2023-02-28T01:44:05.304Z,9.20
2023-02-28T01:47:41.014Z,8.50
2023-02-28T01:51:13.579Z,9.80
2023-02-28T01:54:37.879Z,9.20
2023-02-28T01:58:06.356Z,10.30
2023-02-28T02:01:32.802Z,8.40
2023-02-28T02:05:07.128Z,10.10
2023-02-28T02:08:31.623Z,11.70
2023-02-28T02:11:57.642Z,13.00
2023-02-28T02:15:50.001Z,13.20
2023-02-28T02:19:28.573Z,10.40
2023-02-28T02:23:17.945Z,11.00
2023-02-28T02:27:00.151Z,8.60
2023-02-28T02:31:08.840Z,11.90
2023-02-28T02:34:54.111Z,11.10
2023-02-28T02:38:36.414Z,11.00
2023-02-28T02:42:05.199Z,10.20
2023-02-28T02:45:37.935Z,10.50
2023-02-28T02:49:06.459Z,10.60
2023-02-28T02:52:37.773Z,12.10
2023-02-28T02:56:04.099Z,11.00
2023-02-28T02:59:30.201Z,11.40
2023-02-28T03:02:57.005Z,10.90
2023-02-28T03:06:21.355Z,11.10
2023-02-28T03:09:54.604Z,11.40
2023-02-28T03:13:36.929Z,10.80
2023-02-28T03:17:20.653Z,12.40
2023-02-28T03:21:08.760Z,11.80
2023-02-28T03:24:47.723Z,13.20
2023-02-28T03:28:15.837Z,12.40
2023-02-28T03:31:44.027Z,14.30
2023-02-28T03:35:23.248Z,12.80
2023-02-28T03:38:59.742Z,13.20
2023-02-28T03:42:27.973Z,12.40
2023-02-28T03:45:53.614Z,13.00
2023-02-28T03:53:13.610Z,13.70
2023-02-28T03:56:45.654Z,11.70
2023-02-28T04:00:45.783Z,13.10
2023-02-28T04:04:14.375Z,14.40
2023-02-28T04:07:39.421Z,13.70
2023-02-28T04:11:08.893Z,12.30
2023-02-28T04:14:32.837Z,14.10
2023-02-28T04:17:56.814Z,12.80
2023-02-28T04:21:23.196Z,15.60
2023-02-28T04:24:47.128Z,15.70
2023-02-28T04:28:14.131Z,13.20
2023-02-28T04:31:38.176Z,16.60
2023-02-28T04:35:04.366Z,15.40
2023-02-28T04:38:28.225Z,18.30
2023-02-28T04:41:52.647Z,15.90
2023-02-28T04:45:16.610Z,16.90
2023-02-28T04:48:41.701Z,13.30
2023-02-28T04:52:06.429Z,14.00
2023-02-28T04:55:30.230Z,13.30
2023-02-28T04:58:54.242Z,14.30
2023-02-28T05:02:18.221Z,13.00
2023-02-28T05:05:42.088Z,14.60
2023-02-28T05:09:05.927Z,16.20
2023-02-28T05:12:29.862Z,17.40
2023-02-28T05:15:53.771Z,16.80
2023-02-28T05:19:17.765Z,16.80
2023-02-28T05:22:43.156Z,18.60
2023-02-28T05:26:07.101Z,28.60
2023-02-28T05:29:31.012Z,29.80
2023-02-28T05:32:54.923Z,18.70
2023-02-28T05:36:18.777Z,19.90
2023-02-28T05:39:42.695Z,16.80
2023-02-28T05:43:06.636Z,18.60
2023-02-28T05:46:30.536Z,15.50
2023-02-28T05:49:54.399Z,15.60
2023-02-28T05:53:18.444Z,17.00
2023-02-28T05:56:45.147Z,14.00
2023-02-28T06:00:12.551Z,14.00
2023-02-28T06:03:36.797Z,13.80
2023-02-28T06:07:00.865Z,13.50
2023-02-28T06:10:25.026Z,13.50
2023-02-28T06:13:49.845Z,13.30
2023-02-28T06:17:13.627Z,14.30
2023-02-28T06:20:37.602Z,14.00
2023-02-28T06:24:01.798Z,18.10
2023-02-28T06:27:25.947Z,16.20
2023-02-28T06:30:50.114Z,14.90
2023-02-28T06:34:15.956Z,15.70
2023-02-28T06:41:07.144Z,15.00
2023-02-28T06:44:36.209Z,17.10
2023-02-28T06:48:01.309Z,17.40
2023-02-28T06:51:25.522Z,15.10
2023-02-28T06:55:00.880Z,15.00
2023-02-28T06:58:24.835Z,11.50
2023-02-28T07:01:49.315Z,12.90
2023-02-28T07:05:13.331Z,11.80
2023-02-28T07:08:38.036Z,11.70
2023-02-28T07:12:02.059Z,12.60
2023-02-28T07:15:26.295Z,10.40
2023-02-28T07:18:50.522Z,13.00
2023-02-28T07:22:15.956Z,10.20
2023-02-28T07:25:40.504Z,10.60
2023-02-28T07:29:04.559Z,10.90
2023-02-28T07:32:28.426Z,11.50
2023-02-28T07:35:52.532Z,11.30
2023-02-28T07:39:16.418Z,12.30
2023-02-28T07:42:41.454Z,11.50
2023-02-28T07:46:08.798Z,11.60
2023-02-28T07:49:33.198Z,11.60
2023-02-28T07:52:57.273Z,11.50
2023-02-28T07:56:21.152Z,11.70
2023-02-28T07:59:46.177Z,10.20
2023-02-28T08:03:15.102Z,10.70
2023-02-28T08:06:39.139Z,9.60
2023-02-28T08:10:03.027Z,11.00
2023-02-28T08:13:28.342Z,9.90
2023-02-28T08:16:52.305Z,10.70
2023-02-28T08:20:16.276Z,10.40
2023-02-28T08:23:40.257Z,12.20
2023-02-28T08:27:04.116Z,11.30
2023-02-28T08:30:28.032Z,11.50
2023-02-28T08:33:54.241Z,10.90
2023-02-28T08:37:18.248Z,12.30
2023-02-28T08:40:42.455Z,11.80
2023-02-28T08:44:07.205Z,11.10
2023-02-28T08:47:31.323Z,10.60
2023-02-28T08:51:27.412Z,9.90
2023-02-28T08:54:51.740Z,10.20
2023-02-28T08:58:16.709Z,11.70
2023-02-28T09:01:42.389Z,8.00
2023-02-28T09:05:07.169Z,10.70
2023-02-28T09:08:32.803Z,11.60
2023-02-28T09:15:21.654Z,11.60
2023-02-28T09:18:46.471Z,10.80
2023-02-28T09:22:12.769Z,13.10
2023-02-28T09:25:37.204Z,11.70
2023-02-28T09:29:01.007Z,12.80
2023-02-28T09:32:25.004Z,12.10
2023-02-28T09:35:50.540Z,12.20
2023-02-28T09:39:16.515Z,11.80
2023-02-28T09:42:41.023Z,11.20
2023-02-28T09:46:16.428Z,11.60
2023-02-28T09:49:48.074Z,11.80
2023-02-28T09:53:22.130Z,12.00
2023-02-28T09:56:52.921Z,12.20
2023-02-28T10:00:25.677Z,11.50
2023-02-28T10:04:01.214Z,13.00
2023-02-28T10:07:52.848Z,12.00
2023-02-28T10:11:21.692Z,12.60
2023-02-28T10:14:49.849Z,12.40
2023-02-28T10:18:21.949Z,12.40
2023-02-28T10:21:57.097Z,13.20
2023-02-28T10:25:27.079Z,13.40
2023-02-28T10:28:55.364Z,13.20
2023-02-28T10:32:25.872Z,13.10
2023-02-28T10:35:50.297Z,13.20
2023-02-28T10:39:41.537Z,14.10
2023-02-28T10:43:08.344Z,12.60
2023-02-28T10:46:35.933Z,13.50
2023-02-28T10:50:00.196Z,12.30
2023-02-28T10:53:24.617Z,13.40
2023-02-28T10:57:09.613Z,15.00
2023-02-28T11:00:36.964Z,14.30
2023-02-28T11:04:04.450Z,13.10
2023-02-28T11:07:37.256Z,14.30
2023-02-28T11:11:08.779Z,15.30
2023-02-28T11:14:51.336Z,14.70
2023-02-28T11:18:15.230Z,14.20
2023-02-28T11:21:41.137Z,14.30
2023-02-28T11:28:39.190Z,14.90
2023-02-28T11:32:15.496Z,15.40
2023-02-28T11:35:41.701Z,13.70
2023-02-28T11:39:13.784Z,15.30
2023-02-28T11:42:45.787Z,15.40
2023-02-28T11:46:31.535Z,14.80
2023-02-28T11:50:20.476Z,15.90
2023-02-28T11:54:03.386Z,14.50
2023-02-28T11:57:33.148Z,15.30
2023-02-28T12:01:00.209Z,15.70
2023-02-28T12:04:56.952Z,15.60
2023-02-28T12:12:03.830Z,15.00
2023-02-28T12:15:39.780Z,16.30
2023-02-28T12:19:09.190Z,15.20
2023-02-28T12:22:40.117Z,15.30
2023-02-28T12:26:22.459Z,15.80
2023-02-28T12:29:56.302Z,15.70
2023-02-28T12:33:28.466Z,15.50
2023-02-28T12:37:01.849Z,15.40
2023-02-28T12:40:31.444Z,14.50
2023-02-28T12:44:02.707Z,14.90
2023-02-28T12:47:26.623Z,14.10
2023-02-28T12:50:50.941Z,15.20
2023-02-28T12:54:30.877Z,15.80
2023-02-28T12:58:12.858Z,15.30
2023-02-28T13:01:48.979Z,13.80
2023-02-28T13:09:03.141Z,14.40
2023-02-28T13:12:27.991Z,14.30
2023-02-28T13:16:12.034Z,14.60
2023-02-28T13:19:40.607Z,14.30
2023-02-28T13:23:06.452Z,13.80
2023-02-28T13:26:33.520Z,14.40
2023-02-28T13:29:57.378Z,14.90
2023-02-28T13:33:26.064Z,13.70
2023-02-28T13:36:50.160Z,13.40
2023-02-28T13:40:38.237Z,14.90
2023-02-28T13:44:18.650Z,14.60
2023-02-28T13:47:46.158Z,15.40
2023-02-28T13:51:41.767Z,14.80
2023-02-28T13:55:29.288Z,14.30
2023-02-28T13:59:16.094Z,14.10
2023-02-28T14:02:54.882Z,14.70
2023-02-28T14:06:28.523Z,15.20
2023-02-28T14:10:06.617Z,14.50
2023-02-28T14:13:45.785Z,15.50
2023-02-28T14:17:16.326Z,15.60
2023-02-28T14:20:43.041Z,16.00
2023-02-28T14:24:31.843Z,15.00
2023-02-28T14:28:14.973Z,14.40
2023-02-28T14:32:09.090Z,15.30
2023-02-28T14:36:16.876Z,15.30
2023-02-28T14:40:15.802Z,13.70
2023-02-28T14:44:16.773Z,14.00
2023-02-28T14:48:16.841Z,13.90
2023-02-28T14:52:37.788Z,14.60
2023-02-28T14:56:44.860Z,14.70
2023-02-28T15:00:47.747Z,14.00
2023-02-28T15:04:45.806Z,15.70
2023-02-28T15:08:43.733Z,15.00
2023-02-28T15:12:41.740Z,15.50
2023-02-28T15:16:52.791Z,15.90
2023-02-28T15:20:54.908Z,15.60
2023-02-28T15:25:00.778Z,16.60
2023-02-28T15:28:59.804Z,15.10
2023-02-28T15:32:57.766Z,16.90
2023-02-28T15:36:56.783Z,15.20
2023-02-28T15:41:03.697Z,17.50
2023-02-28T15:45:01.742Z,17.40
2023-02-28T15:49:06.793Z,17.40
2023-02-28T15:53:05.771Z,18.10
2023-02-28T15:57:07.661Z,19.30
2023-02-28T16:01:20.389Z,19.40
2023-02-28T16:05:42.741Z,19.50
2023-02-28T16:09:40.726Z,20.30
2023-02-28T16:13:38.699Z,23.00
2023-02-28T16:17:41.796Z,24.90
2023-02-28T16:21:40.718Z,22.30
2023-02-28T16:25:44.671Z,23.20
2023-02-28T16:29:47.629Z,23.60
2023-02-28T16:33:48.710Z,25.20
2023-02-28T16:37:46.816Z,29.70
2023-02-28T16:41:44.683Z,35.20
2023-02-28T16:45:45.738Z,44.90
2023-02-28T16:49:43.758Z,48.00
2023-02-28T16:53:41.581Z,47.00
2023-02-28T16:57:39.617Z,41.70
2023-02-28T17:01:37.781Z,41.60
2023-02-28T17:05:36.604Z,37.10
2023-02-28T17:09:43.031Z,43.80
2023-02-28T17:13:41.560Z,35.90
2023-02-28T17:17:39.606Z,37.90
2023-02-28T17:21:37.593Z,52.30
2023-02-28T17:25:36.625Z,49.60
2023-02-28T17:29:37.845Z,63.80
2023-02-28T17:33:35.563Z,106.70
2023-02-28T17:37:33.660Z,88.10
2023-02-28T17:41:31.611Z,83.50
2023-02-28T17:45:30.616Z,85.70
2023-02-28T17:49:30.763Z,87.60
2023-02-28T17:53:30.596Z,100.40
2023-02-28T17:57:31.521Z,94.60
2023-02-28T18:01:29.589Z,67.90
2023-02-28T18:05:27.457Z,76.60
2023-02-28T18:09:25.525Z,83.60
2023-02-28T18:13:23.466Z,88.30
2023-02-28T18:17:21.538Z,83.00
2023-02-28T18:21:20.665Z,83.90
2023-02-28T18:25:23.478Z,105.60
2023-02-28T18:29:22.450Z,110.60
2023-02-28T18:33:20.435Z,120.40
2023-02-28T18:37:18.500Z,117.00
2023-02-28T18:41:19.518Z,118.80
2023-02-28T18:45:17.444Z,109.50
2023-02-28T18:49:15.444Z,106.60
2023-02-28T18:53:13.457Z,113.10
2023-02-28T18:57:13.581Z,120.90
2023-02-28T19:01:11.578Z,114.10
2023-02-28T19:05:09.440Z,127.40
2023-02-28T19:09:16.527Z,134.70
2023-02-28T19:13:16.563Z,124.20
2023-02-28T19:17:14.448Z,108.20
2023-02-28T19:21:14.460Z,109.00
2023-02-28T19:25:12.442Z,126.60
2023-02-28T19:29:10.524Z,129.70
2023-02-28T19:33:08.383Z,148.80
2023-02-28T19:37:06.474Z,152.80
2023-02-28T19:41:04.356Z,143.40
2023-02-28T19:45:02.441Z,143.00
2023-02-28T19:49:00.341Z,132.90
2023-02-28T19:53:00.392Z,137.70
2023-02-28T19:56:58.425Z,126.40
2023-02-28T20:00:56.441Z,122.80
2023-02-28T20:04:55.402Z,122.00
2023-02-28T20:08:54.413Z,118.90
2023-02-28T20:12:52.386Z,123.80
2023-02-28T20:16:51.579Z,133.10
2023-02-28T20:20:49.301Z,135.00
2023-02-28T20:24:47.306Z,134.30
2023-02-28T20:28:45.339Z,142.00
2023-02-28T20:32:45.406Z,128.20
2023-02-28T20:36:43.267Z,125.40
2023-02-28T20:40:41.299Z,118.00
2023-02-28T20:44:39.298Z,121.60
2023-02-28T20:48:37.308Z,122.60
2023-02-28T20:52:36.363Z,115.50
2023-02-28T20:56:36.327Z,110.70
2023-02-28T21:00:34.249Z,123.90
2023-02-28T21:04:35.266Z,135.80
2023-02-28T21:08:33.315Z,136.70
2023-02-28T21:12:31.322Z,144.40
2023-02-28T21:16:32.416Z,136.40
2023-02-28T21:20:30.220Z,138.30
2023-02-28T21:24:31.233Z,142.80
2023-02-28T21:28:29.229Z,130.80
2023-02-28T21:32:27.191Z,128.90
2023-02-28T21:36:28.414Z,130.50
2023-02-28T21:40:26.156Z,138.60
2023-02-28T21:44:25.210Z,121.40
2023-02-28T21:48:23.123Z,124.00
2023-02-28T21:52:21.217Z,134.70
2023-02-28T21:56:22.181Z,143.30
2023-02-28T22:00:20.176Z,149.40
2023-02-28T22:04:28.145Z,161.40
2023-02-28T22:08:26.132Z,157.10
2023-02-28T22:12:24.162Z,152.90
2023-02-28T22:16:26.511Z,146.60
2023-02-28T22:20:27.232Z,151.70
2023-02-28T22:24:27.190Z,149.00
2023-02-28T22:28:25.095Z,142.50
2023-02-28T22:32:23.212Z,140.00
2023-02-28T22:36:22.093Z,132.60
2023-02-28T22:40:20.115Z,125.60
2023-02-28T22:44:19.123Z,142.30
2023-02-28T22:48:18.149Z,155.90
2023-02-28T22:52:16.185Z,149.60
2023-02-28T22:56:15.069Z,145.00
2023-02-28T23:00:13.025Z,140.70
2023-02-28T23:04:18.091Z,123.40
2023-02-28T23:08:16.036Z,110.30
2023-02-28T23:12:14.097Z,101.40
2023-02-28T23:16:13.043Z,89.40
2023-02-28T23:20:11.082Z,82.30
2023-02-28T23:24:08.994Z,76.40
2023-02-28T23:28:07.067Z,77.00
2023-02-28T23:32:05.049Z,70.70
2023-02-28T23:36:03.041Z,84.50
2023-02-28T23:40:01.084Z,87.60
2023-02-28T23:43:58.976Z,70.60
2023-02-28T23:47:56.971Z,67.10
2023-02-28T23:51:55.943Z,65.90
2023-02-28T23:55:59.950Z,70.80
2023-02-28T23:59:57.969Z,71.70
